Armington, Montana
Current Conditions -  °F | °C
As of 10:36 AM on Wednesday 26 Nov 2014 (Local Time) from KGFA Reporting Station
Light Snow Light Snow  
Wind Chill: 23°   Ceiling: 2100
Heat Index: NA   Visibility: 1.2mi
Dew Point: 30°   Wind: 5mph
Humidity: NA   Direction: 70°ENE
Pressure: 30.17"   Gusts: NA
Location:  47.3298°N, 110.893°W
Report Text: KGFA 261736Z AUTO 07004KT 1 1/4SM -SN OVC021 M02/M01 A3017 RMK AO2
Loading
Personal Weather Stations






























Interactive Weather Map New forecast layout! Learn more

10-Day Weather Forecast

Advertisements
Track Severe Weather on mobile